createdAt,value
2023-02-11T04:05:09.698Z,49.60
2023-02-11T04:07:37.395Z,52.40
2023-02-11T04:10:06.236Z,49.48
2023-02-11T04:12:33.986Z,52.78
2023-02-11T04:15:01.623Z,48.15
2023-02-11T04:17:29.064Z,49.60
2023-02-11T04:19:56.976Z,49.45
2023-02-11T04:22:24.714Z,48.13
2023-02-11T04:24:52.114Z,45.30
2023-02-11T04:27:19.996Z,43.83
2023-02-11T04:29:47.915Z,45.90
2023-02-11T04:32:16.047Z,47.98
2023-02-11T04:34:44.068Z,45.75
2023-02-11T04:37:11.912Z,44.42
2023-02-11T04:39:39.787Z,50.23
2023-02-11T04:42:07.644Z,47.88
2023-02-11T04:44:35.276Z,51.83
2023-02-11T04:47:03.445Z,59.80
2023-02-11T04:49:31.305Z,51.18
2023-02-11T04:51:59.019Z,48.30
2023-02-11T04:54:26.996Z,48.42
2023-02-11T04:56:54.601Z,64.80
2023-02-11T04:59:22.266Z,60.52
2023-02-11T05:01:50.134Z,70.25
2023-02-11T05:04:18.748Z,71.65
2023-02-11T05:06:46.414Z,67.47
2023-02-11T05:09:14.209Z,69.65
2023-02-11T05:11:42.516Z,63.78
2023-02-11T05:14:10.181Z,63.50
2023-02-11T05:16:38.120Z,56.63
2023-02-11T05:19:05.612Z,53.73
2023-02-11T05:21:33.560Z,51.15
2023-02-11T05:24:01.303Z,51.25
2023-02-11T05:26:29.270Z,69.65
2023-02-11T05:28:57.170Z,65.97
2023-02-11T05:31:25.017Z,60.30
2023-02-11T05:33:53.589Z,56.25
2023-02-11T05:36:21.649Z,51.83
2023-02-11T05:38:50.374Z,54.13
2023-02-11T05:41:17.814Z,55.70
2023-02-11T05:43:53.690Z,52.93
2023-02-11T05:46:21.394Z,58.60
2023-02-11T05:48:49.329Z,64.62
2023-02-11T05:51:17.196Z,89.42
2023-02-11T05:53:44.869Z,89.87
2023-02-11T05:56:14.147Z,94.65
2023-02-11T05:58:42.255Z,75.57
2023-02-11T06:01:09.842Z,57.00
2023-02-11T06:03:37.673Z,48.17
2023-02-11T06:06:12.520Z,49.03
2023-02-11T06:08:40.244Z,43.65
2023-02-11T06:11:08.221Z,53.65
2023-02-11T06:13:36.346Z,53.45
2023-02-11T06:16:04.740Z,47.90
2023-02-11T06:18:33.232Z,43.40
2023-02-11T06:21:01.442Z,51.00
2023-02-11T06:23:30.443Z,50.78
2023-02-11T06:26:03.071Z,51.77
2023-02-11T06:28:31.080Z,56.02
2023-02-11T06:31:07.194Z,57.53
2023-02-11T06:33:35.568Z,61.05
2023-02-11T06:36:04.998Z,66.17
2023-02-11T06:38:32.856Z,67.67
2023-02-11T06:41:00.505Z,64.53
2023-02-11T06:43:28.252Z,64.30
2023-02-11T06:45:56.163Z,73.92
2023-02-11T06:48:24.145Z,82.02
2023-02-11T06:50:51.739Z,62.20
2023-02-11T06:53:19.444Z,57.17
2023-02-11T06:55:46.925Z,65.40
2023-02-11T06:58:15.203Z,64.07
2023-02-11T07:00:42.818Z,61.63
2023-02-11T07:03:10.499Z,54.30
2023-02-11T07:05:38.321Z,66.67
2023-02-11T07:08:05.984Z,65.90
2023-02-11T07:10:34.148Z,73.92
2023-02-11T07:13:02.060Z,75.62
2023-02-11T07:15:29.809Z,71.07
2023-02-11T07:17:57.761Z,61.88
2023-02-11T07:20:26.398Z,69.67
2023-02-11T07:22:54.504Z,60.75
2023-02-11T07:25:22.524Z,71.57
2023-02-11T07:27:50.398Z,77.12
2023-02-11T07:30:18.164Z,65.03
2023-02-11T07:32:46.145Z,66.57
2023-02-11T07:35:14.433Z,74.10
2023-02-11T07:37:42.264Z,73.52
2023-02-11T07:40:11.011Z,72.03
2023-02-11T07:42:40.861Z,65.20
2023-02-11T07:45:09.189Z,70.57
2023-02-11T07:47:37.970Z,66.00
2023-02-11T07:50:06.415Z,67.90
2023-02-11T07:52:33.966Z,76.15
2023-02-11T07:55:04.680Z,68.00
2023-02-11T07:57:31.800Z,76.47
2023-02-11T08:00:01.443Z,80.57
2023-02-11T08:02:30.959Z,69.95
2023-02-11T08:04:58.797Z,70.22
2023-02-11T08:07:28.148Z,67.47
2023-02-11T08:09:56.037Z,67.85
2023-02-11T08:12:23.870Z,84.80
2023-02-11T08:14:51.914Z,86.35
2023-02-11T08:17:19.673Z,68.45
2023-02-11T08:19:47.600Z,72.32
2023-02-11T08:22:15.388Z,56.37
2023-02-11T08:24:43.130Z,58.02
2023-02-11T08:27:10.673Z,61.05
2023-02-11T08:29:38.358Z,52.88
2023-02-11T08:32:06.172Z,51.90
2023-02-11T08:34:33.725Z,53.55
2023-02-11T08:37:01.407Z,45.17
2023-02-11T08:39:29.052Z,51.33
2023-02-11T08:41:56.793Z,53.35
2023-02-11T08:44:24.649Z,54.40
2023-02-11T08:46:52.737Z,54.00
2023-02-11T08:49:28.616Z,50.63
2023-02-11T08:52:03.866Z,52.43
2023-02-11T08:54:40.603Z,47.33
2023-02-11T08:57:15.583Z,52.30
2023-02-11T09:02:29.439Z,42.93
2023-02-11T09:04:57.354Z,45.43
2023-02-11T09:07:25.030Z,50.03
2023-02-11T09:09:52.974Z,48.10
2023-02-11T09:12:20.686Z,45.05
2023-02-11T09:14:48.228Z,50.20
2023-02-11T09:17:16.060Z,51.50
2023-02-11T09:19:43.546Z,52.23
2023-02-11T09:22:11.138Z,49.38
2023-02-11T09:24:39.086Z,42.58
2023-02-11T09:27:06.998Z,48.13
2023-02-11T09:29:35.034Z,49.03
2023-02-11T09:32:02.794Z,45.98
2023-02-11T09:34:32.405Z,51.45
2023-02-11T09:37:00.013Z,61.10
2023-02-11T09:39:28.798Z,72.08
2023-02-11T09:42:06.971Z,56.23
2023-02-11T09:44:37.278Z,54.80
2023-02-11T09:47:21.599Z,58.83
2023-02-11T09:49:54.325Z,59.15
2023-02-11T09:52:48.923Z,55.65
2023-02-11T09:55:42.001Z,46.50
2023-02-11T09:58:16.666Z,42.65
2023-02-11T10:01:09.268Z,44.03
2023-02-11T10:04:19.909Z,52.80
2023-02-11T10:06:57.945Z,51.77
2023-02-11T10:09:53.659Z,46.48
2023-02-11T10:12:54.570Z,42.08
2023-02-11T10:15:33.683Z,58.17
2023-02-11T10:18:12.758Z,56.48
2023-02-11T10:21:08.453Z,50.50
2023-02-11T10:23:42.937Z,73.55
2023-02-11T10:26:17.205Z,65.62
2023-02-11T10:28:49.605Z,56.48
2023-02-11T10:31:38.016Z,66.02
2023-02-11T10:34:10.071Z,60.12
2023-02-11T10:36:44.649Z,47.67
2023-02-11T10:39:22.570Z,38.83
2023-02-11T10:42:07.156Z,44.58
2023-02-11T10:45:00.116Z,40.58
2023-02-11T10:47:32.971Z,42.20
2023-02-11T10:50:02.531Z,43.93
2023-02-11T10:52:31.099Z,41.98
2023-02-11T10:55:06.891Z,37.78
2023-02-11T10:57:45.459Z,37.13
2023-02-11T11:00:43.073Z,34.53
2023-02-11T11:03:23.881Z,36.38
2023-02-11T11:06:01.870Z,37.53
2023-02-11T11:08:50.997Z,35.30
2023-02-11T11:11:22.950Z,37.35
2023-02-11T11:13:58.631Z,34.27
2023-02-11T11:16:34.113Z,32.85
2023-02-11T11:19:13.322Z,35.73
2023-02-11T11:21:50.616Z,35.83
2023-02-11T11:24:29.164Z,42.05
2023-02-11T11:27:02.522Z,36.90
2023-02-11T11:29:53.324Z,35.23
2023-02-11T11:32:25.627Z,34.67
2023-02-11T11:34:58.428Z,36.48
2023-02-11T11:37:33.024Z,33.42
2023-02-11T11:40:24.167Z,41.00
2023-02-11T11:43:18.993Z,35.17
2023-02-11T11:45:59.467Z,35.20
2023-02-11T11:48:32.621Z,33.58
2023-02-11T11:51:04.512Z,34.18
2023-02-11T11:53:43.443Z,33.08
2023-02-11T11:56:19.896Z,28.23
2023-02-11T11:58:48.968Z,34.70
2023-02-11T12:01:49.455Z,34.80
2023-02-11T12:04:41.233Z,41.60
2023-02-11T12:07:31.845Z,36.08
2023-02-11T12:10:23.273Z,33.88
2023-02-11T12:13:33.171Z,35.43
2023-02-11T12:16:18.272Z,30.52
2023-02-11T12:19:24.034Z,130.67
2023-02-11T12:22:06.312Z,58.42
2023-02-11T12:24:51.590Z,46.20
2023-02-11T12:27:36.441Z,74.58
2023-02-11T12:30:29.379Z,45.45
2023-02-11T12:33:17.652Z,41.68
2023-02-11T12:36:41.249Z,32.70
2023-02-11T12:39:35.512Z,34.65
2023-02-11T12:42:43.792Z,34.33
2023-02-11T12:45:32.015Z,34.50
2023-02-11T12:48:28.058Z,35.38
2023-02-11T12:51:28.009Z,33.85
2023-02-11T12:54:19.226Z,31.42
2023-02-11T12:56:52.784Z,26.07
2023-02-11T13:01:56.919Z,33.40
2023-02-11T13:04:41.636Z,36.28
2023-02-11T13:07:30.634Z,47.13
2023-02-11T13:10:09.726Z,39.35
2023-02-11T13:12:56.732Z,35.13
2023-02-11T13:15:25.475Z,34.20
2023-02-11T13:18:26.201Z,35.58
2023-02-11T13:21:17.243Z,35.43
2023-02-11T13:24:13.154Z,34.90
2023-02-11T13:27:02.751Z,36.17
2023-02-11T13:30:12.894Z,35.23
2023-02-11T13:33:01.330Z,42.08
2023-02-11T13:35:39.386Z,67.65
2023-02-11T13:38:18.647Z,52.90
2023-02-11T13:41:07.543Z,48.85
2023-02-11T13:43:36.824Z,71.15
2023-02-11T13:46:09.576Z,54.27
2023-02-11T13:48:48.376Z,68.92
2023-02-11T13:51:20.773Z,143.30
2023-02-11T13:53:59.090Z,64.20
2023-02-11T13:56:37.193Z,41.00
2023-02-11T13:59:30.084Z,74.20
2023-02-11T14:02:54.097Z,109.03
2023-02-11T14:05:47.681Z,56.55
2023-02-11T14:08:43.017Z,61.40
2023-02-11T14:11:41.162Z,46.45
2023-02-11T14:14:34.358Z,62.55
2023-02-11T14:17:13.549Z,63.45
2023-02-11T14:19:46.944Z,39.42
2023-02-11T14:22:46.663Z,38.33
2023-02-11T14:25:24.225Z,41.53
2023-02-11T14:28:12.996Z,41.53
2023-02-11T14:30:55.321Z,42.00
2023-02-11T14:33:50.112Z,37.35
2023-02-11T14:36:32.337Z,36.58
2023-02-11T14:39:30.963Z,42.13
2023-02-11T14:42:01.512Z,45.70
2023-02-11T14:44:32.866Z,53.33
2023-02-11T14:47:00.743Z,52.40
2023-02-11T14:49:35.647Z,63.63
2023-02-11T14:52:31.900Z,54.27
2023-02-11T14:55:08.453Z,52.40
2023-02-11T14:57:37.381Z,58.23
2023-02-11T15:00:16.492Z,53.23
2023-02-11T15:02:44.832Z,48.25
2023-02-11T15:05:26.302Z,59.20
2023-02-11T15:08:01.374Z,47.38
2023-02-11T15:10:40.608Z,44.20
2023-02-11T15:13:08.943Z,40.43
2023-02-11T15:15:40.392Z,45.80
2023-02-11T15:18:09.809Z,46.10
2023-02-11T15:20:37.509Z,45.10
2023-02-11T15:23:12.259Z,42.60
2023-02-11T15:25:46.251Z,41.58
2023-02-11T15:28:24.817Z,39.65
2023-02-11T15:31:02.705Z,47.62
2023-02-11T15:33:32.540Z,43.38
2023-02-11T15:36:02.320Z,59.95
2023-02-11T15:38:30.910Z,53.45
2023-02-11T15:41:02.484Z,74.05
2023-02-11T15:43:50.738Z,64.32
2023-02-11T15:46:21.974Z,60.23
2023-02-11T15:48:53.983Z,55.35
2023-02-11T15:51:28.943Z,54.48
2023-02-11T15:54:00.867Z,67.10
2023-02-11T15:56:42.881Z,60.50
2023-02-11T15:59:30.769Z,64.27
2023-02-11T16:02:07.462Z,65.37
2023-02-11T16:04:36.393Z,63.15
2023-02-11T16:07:04.747Z,65.40
2023-02-11T16:09:36.795Z,68.90
2023-02-11T16:12:21.799Z,60.92
2023-02-11T16:14:49.862Z,67.62
2023-02-11T16:17:21.980Z,64.70
2023-02-11T16:19:52.003Z,57.70
2023-02-11T16:22:29.753Z,67.08
2023-02-11T16:24:59.756Z,52.08
2023-02-11T16:27:40.075Z,48.98
2023-02-11T16:30:34.296Z,62.62
2023-02-11T16:33:02.505Z,80.50
2023-02-11T16:35:30.304Z,70.85
2023-02-11T16:37:58.008Z,61.63
2023-02-11T16:40:25.665Z,66.70
2023-02-11T16:42:53.165Z,62.65
2023-02-11T16:45:20.844Z,58.13
2023-02-11T16:47:48.410Z,59.88
2023-02-11T16:50:22.659Z,53.65
2023-02-11T16:52:51.998Z,54.93
2023-02-11T16:55:22.041Z,63.38
2023-02-11T16:57:49.408Z,58.80
2023-02-11T17:00:18.440Z,71.00
2023-02-11T17:02:46.438Z,67.65
2023-02-11T17:05:22.499Z,72.82
2023-02-11T17:07:50.323Z,73.37
2023-02-11T17:10:23.045Z,100.47
2023-02-11T17:12:52.922Z,81.32
2023-02-11T17:15:20.658Z,99.32
2023-02-11T17:17:48.455Z,117.28
2023-02-11T17:20:16.881Z,104.53
2023-02-11T17:22:44.580Z,76.40
2023-02-11T17:25:12.346Z,73.10
2023-02-11T17:27:40.106Z,70.78
2023-02-11T17:30:08.852Z,86.87
2023-02-11T17:32:37.582Z,77.20
2023-02-11T17:35:06.700Z,85.67
2023-02-11T17:37:34.466Z,71.77
2023-02-11T17:40:02.474Z,61.53
2023-02-11T17:42:30.832Z,55.40
2023-02-11T17:44:58.395Z,58.23
2023-02-11T17:47:26.103Z,57.20
2023-02-11T17:49:53.474Z,73.85
2023-02-11T17:52:21.195Z,75.30
2023-02-11T17:54:48.786Z,71.65
2023-02-11T17:57:18.674Z,63.25
2023-02-11T17:59:46.541Z,66.30
2023-02-11T18:02:14.127Z,72.65
2023-02-11T18:04:41.787Z,74.80
2023-02-11T18:07:09.312Z,68.10
2023-02-11T18:09:39.910Z,110.10
2023-02-11T18:12:10.315Z,126.62
2023-02-11T18:14:39.930Z,105.17
2023-02-11T18:17:07.726Z,75.00
2023-02-11T18:19:37.070Z,79.82
2023-02-11T18:22:04.648Z,84.62
2023-02-11T18:24:32.357Z,75.17
2023-02-11T18:27:00.156Z,69.75
2023-02-11T18:29:28.052Z,84.35
2023-02-11T18:31:56.726Z,66.25
2023-02-11T18:34:25.302Z,69.40
2023-02-11T18:36:52.898Z,70.97
2023-02-11T18:39:22.654Z,77.53
2023-02-11T18:41:51.963Z,72.75
2023-02-11T18:44:22.142Z,91.65
2023-02-11T18:46:51.333Z,66.82
2023-02-11T18:49:20.227Z,70.70
2023-02-11T18:51:47.759Z,77.32
2023-02-11T18:54:15.263Z,72.75
2023-02-11T18:56:43.035Z,77.55
2023-02-11T18:59:10.821Z,126.33
2023-02-11T19:01:41.693Z,146.50
2023-02-11T19:04:09.721Z,164.22
2023-02-11T19:06:38.563Z,172.17
2023-02-11T19:09:10.623Z,165.20
2023-02-11T19:11:53.621Z,162.03
2023-02-11T19:14:29.222Z,175.20
2023-02-11T19:16:59.762Z,193.95
2023-02-11T19:19:31.283Z,213.82
2023-02-11T19:22:01.133Z,198.82
2023-02-11T19:24:30.172Z,191.77
2023-02-11T19:27:00.912Z,131.55
2023-02-11T19:29:31.725Z,129.18
2023-02-11T19:31:59.488Z,114.22
2023-02-11T19:34:26.903Z,124.33
2023-02-11T19:36:56.225Z,112.15
2023-02-11T19:39:24.304Z,110.15
2023-02-11T19:41:52.737Z,96.12
2023-02-11T19:44:20.739Z,107.43
2023-02-11T19:46:49.731Z,100.75
2023-02-11T19:49:19.477Z,102.00
2023-02-11T19:51:49.237Z,113.50
2023-02-11T19:54:17.198Z,190.20
2023-02-11T19:56:45.447Z,221.65
2023-02-11T19:59:15.704Z,122.15
2023-02-11T20:01:45.262Z,121.77
2023-02-11T20:04:13.762Z,139.50
2023-02-11T20:06:41.481Z,199.77
2023-02-11T20:09:13.020Z,219.90
2023-02-11T20:11:42.053Z,206.00
2023-02-11T20:14:14.870Z,141.10
2023-02-11T20:16:49.198Z,100.45
2023-02-11T20:19:17.516Z,103.05
2023-02-11T20:21:47.968Z,91.90
2023-02-11T20:24:17.878Z,78.30
2023-02-11T20:26:47.759Z,81.85
2023-02-11T20:29:17.540Z,95.00
2023-02-11T20:31:45.522Z,88.87
2023-02-11T20:34:13.816Z,86.08
2023-02-11T20:36:41.460Z,81.50
2023-02-11T20:39:13.264Z,83.50
2023-02-11T20:41:41.027Z,84.35
2023-02-11T20:44:10.372Z,87.80
2023-02-11T20:46:41.458Z,88.40
2023-02-11T20:49:15.467Z,78.45
2023-02-11T20:51:43.725Z,81.42
2023-02-11T20:54:15.288Z,79.07
2023-02-11T20:56:46.781Z,84.42
2023-02-11T20:59:14.357Z,95.05
2023-02-11T21:01:48.646Z,76.90
2023-02-11T21:04:20.274Z,77.82
2023-02-11T21:06:51.859Z,78.12
2023-02-11T21:09:26.321Z,67.15
2023-02-11T21:11:54.964Z,64.45
2023-02-11T21:14:24.735Z,67.45
2023-02-11T21:16:53.000Z,73.67
2023-02-11T21:19:20.911Z,62.08
2023-02-11T21:21:48.737Z,69.15
2023-02-11T21:24:16.752Z,66.42
2023-02-11T21:26:44.521Z,77.87
2023-02-11T21:29:12.183Z,85.60
2023-02-11T21:31:40.178Z,75.90
2023-02-11T21:34:08.253Z,76.65
2023-02-11T21:36:36.199Z,79.07
2023-02-11T21:39:05.101Z,77.85
2023-02-11T21:41:35.095Z,75.25
2023-02-11T21:44:03.666Z,78.87
2023-02-11T21:46:31.187Z,75.83
2023-02-11T21:48:59.820Z,70.37
2023-02-11T21:51:28.213Z,77.72
2023-02-11T21:54:00.880Z,82.45
2023-02-11T21:56:31.439Z,80.93
2023-02-11T21:58:59.995Z,89.65
2023-02-11T22:01:32.266Z,85.92
2023-02-11T22:04:00.105Z,75.28
2023-02-11T22:06:31.387Z,86.25
2023-02-11T22:09:06.367Z,102.67
2023-02-11T22:11:34.805Z,111.62
2023-02-11T22:14:03.857Z,126.33
2023-02-11T22:16:31.837Z,139.80
2023-02-11T22:19:01.872Z,175.93
2023-02-11T22:21:29.863Z,168.37
2023-02-11T22:23:57.668Z,178.32
2023-02-11T22:26:27.474Z,137.32
2023-02-11T22:28:56.023Z,118.60
2023-02-11T22:31:28.345Z,93.37
2023-02-11T22:33:57.061Z,85.85
2023-02-11T22:36:29.123Z,82.27
2023-02-11T22:39:07.262Z,85.75
2023-02-11T22:41:35.274Z,82.55
2023-02-11T22:44:02.751Z,88.90
2023-02-11T22:46:30.581Z,85.55
2023-02-11T22:48:58.629Z,85.22
2023-02-11T22:51:29.089Z,82.47
2023-02-11T22:54:01.320Z,79.58
2023-02-11T22:56:31.348Z,82.55
2023-02-11T22:59:01.514Z,85.55
2023-02-11T23:01:31.156Z,82.95
2023-02-11T23:04:05.170Z,98.40
2023-02-11T23:06:33.251Z,94.92
2023-02-11T23:09:03.901Z,96.50
2023-02-11T23:11:32.546Z,104.35
2023-02-11T23:14:02.704Z,108.07
2023-02-11T23:16:34.178Z,94.40
2023-02-11T23:19:06.177Z,83.92
2023-02-11T23:21:37.745Z,73.75
2023-02-11T23:24:10.628Z,65.90
2023-02-11T23:26:41.210Z,66.15
2023-02-11T23:29:09.481Z,64.10
2023-02-11T23:31:42.814Z,66.47
2023-02-11T23:34:10.846Z,63.92
2023-02-11T23:36:38.569Z,79.65
2023-02-11T23:39:06.401Z,67.35
2023-02-11T23:41:34.311Z,55.98
2023-02-11T23:44:01.908Z,58.15
2023-02-11T23:46:29.514Z,57.55
2023-02-11T23:48:57.130Z,69.60
2023-02-11T23:51:24.914Z,73.35
2023-02-11T23:53:55.545Z,72.10
2023-02-11T23:56:26.729Z,81.92
2023-02-11T23:58:57.660Z,85.70
